Straubville, North Dakota
Current Conditions -  °F | °C
As of 12:15 PM on Thursday 27 Nov 2014 (Local Time) from KGWR Reporting Station
Clear Clear  
Wind Chill: -8°   Ceiling: Unl
Heat Index:   Visibility: 10mi
Dew Point: -4°   Wind: 8mph
Humidity: 66%   Direction: 160°SSE
Pressure: 30.39"   Gusts: NA
Location:  46.0772°N, 97.8609°W
Report Text: KGWR 271815Z AUTO 16007KT 10SM CLR M15/M20 A3039 RMK A01 P000
Loading
Personal Weather Stations






























Interactive Weather Map New forecast layout! Learn more

10-Day Weather Forecast

Advertisements
Track Severe Weather on mobile